Time;durP1;ratioP1;P1;durP2;ratioP2;P2;SDS_P1;SDS_P2;PMS_P1;PMS_P2;Temp;Humidity;BMP_temperature;BMP_pressure;BME280_temperature;BME280_humidity;BME280_pressure;Samples;Min_cycle;Max_cycle;Signal;HPM_P1;HPM_P2
2023/04/30 00:01:45;;;;;;;21.35;17.23;;;;;;;6.23;nan;102297.00;4994096;28;20038;-40
2023/04/30 00:04:11;;;;;;;22.33;18.27;;;;;;;6.10;nan;102274.22;4992746;28;20077;-40
2023/04/30 00:06:36;;;;;;;21.63;17.45;;;;;;;5.92;nan;102249.66;4990719;28;20056;-40
2023/04/30 00:09:02;;;;;;;21.38;17.08;;;;;;;6.10;nan;102286.44;4994365;28;20041;-40
2023/04/30 00:11:27;;;;;;;24.17;15.75;;;;;;;5.76;nan;102229.44;4991822;28;20523;-40
2023/04/30 00:13:53;;;;;;;21.95;15.95;;;;;;;6.01;nan;102275.88;4992965;28;20445;-41
2023/04/30 00:16:18;;;;;;;21.88;15.82;;;;;;;6.05;nan;102288.97;4992898;28;20505;-40
2023/04/30 00:18:43;;;;;;;21.48;16.17;;;;;;;6.08;nan;102299.47;4993628;28;20038;-41
2023/04/30 00:21:09;;;;;;;22.90;15.43;;;;;;;6.00;nan;102288.06;4992141;28;20142;-42
2023/04/30 00:23:34;;;;;;;18.20;15.75;;;;;;;6.08;nan;102302.06;4992575;28;20034;-40
2023/04/30 00:26:00;;;;;;;18.27;15.77;;;;;;;5.91;nan;102272.31;4993741;28;20066;-40
2023/04/30 00:28:26;;;;;;;20.05;15.13;;;;;;;5.95;nan;102289.78;4992252;28;20093;-41
2023/04/30 00:30:51;;;;;;;23.55;16.92;;;;;;;6.13;nan;102313.44;4993661;28;20036;-40
2023/04/30 00:33:16;;;;;;;25.60;16.65;;;;;;;6.02;nan;102285.47;4993577;28;20031;-41
2023/04/30 00:35:42;;;;;;;23.20;16.73;;;;;;;5.93;nan;102267.06;4990812;28;20041;-42
2023/04/30 00:38:07;;;;;;;21.15;16.77;;;;;;;5.81;nan;102246.06;4992357;28;20042;-42
2023/04/30 00:40:36;;;;;;;21.55;16.02;;;;;;;5.60;nan;102204.91;4993342;28;20540;-41
2023/04/30 00:43:02;;;;;;;22.45;16.27;;;;;;;6.15;nan;102314.34;5008276;28;20034;-40
2023/04/30 00:45:27;;;;;;;21.55;15.95;;;;;;;6.13;nan;102315.19;4993197;28;20069;-39
2023/04/30 00:47:53;;;;;;;21.50;17.70;;;;;;;5.81;nan;102267.81;4993190;28;20039;-41
2023/04/30 00:50:18;;;;;;;20.88;16.27;;;;;;;6.05;nan;102317.72;4974895;28;20133;-41
2023/04/30 00:52:44;;;;;;;21.17;16.13;;;;;;;5.71;nan;102262.47;4993179;28;20042;-41
2023/04/30 00:55:12;;;;;;;22.77;17.55;;;;;;;5.97;nan;102310.69;4991842;28;20316;-42
2023/04/30 00:57:39;;;;;;;20.38;16.02;;;;;;;5.58;nan;102257.13;4992252;28;20038;-40
2023/04/30 01:00:08;;;;;;;26.30;17.15;;;;;;;5.92;nan;102320.22;4991147;28;20062;-42
2023/04/30 01:02:34;;;;;;;21.63;17.38;;;;;;;5.80;nan;102289.59;4993085;28;20034;-42
2023/04/30 01:05:01;;;;;;;25.95;18.13;;;;;;;5.89;nan;102312.34;4992936;28;20533;-41
2023/04/30 01:07:27;;;;;;;23.98;18.33;;;;;;;5.73;nan;102292.09;4991726;28;20500;-43
2023/04/30 01:09:53;;;;;;;25.60;19.45;;;;;;;5.74;nan;102314.75;4991522;28;20027;-40
2023/04/30 01:12:24;;;;;;;19.90;17.77;;;;;;;5.82;nan;102321.81;4990277;28;20030;-42
2023/04/30 01:15:08;;;;;;;23.75;19.10;;;;;;;5.81;nan;102325.28;4993041;28;20110;-42
2023/04/30 01:18:15;;;;;;;28.25;18.73;;;;;;;5.81;nan;102317.44;4992864;28;20124;-40
2023/04/30 01:20:47;;;;;;;27.48;19.08;;;;;;;5.69;nan;102304.28;4984574;28;20070;-43
2023/04/30 01:23:28;;;;;;;25.48;19.08;;;;;;;5.78;nan;102334.84;4990685;28;20500;-42
2023/04/30 01:26:32;;;;;;;24.85;18.63;;;;;;;5.76;nan;102326.09;4991641;28;20394;-42
2023/04/30 01:28:59;;;;;;;25.65;19.92;;;;;;;5.35;nan;102258.63;4983880;28;20405;-42
2023/04/30 01:31:27;;;;;;;29.65;19.25;;;;;;;5.62;nan;102307.66;5007111;28;20034;-43
2023/04/30 01:33:52;;;;;;;25.42;19.40;;;;;;;5.53;nan;102298.00;4992739;28;20219;-41
2023/04/30 01:36:20;;;;;;;24.77;19.05;;;;;;;5.69;nan;102333.88;4991539;28;20069;-40
2023/04/30 01:39:05;;;;;;;21.75;17.83;;;;;;;5.64;nan;102330.34;4992808;28;20053;-40
2023/04/30 01:41:36;;;;;;;25.77;20.23;;;;;;;5.43;nan;102295.28;4991294;28;20426;-40
2023/04/30 01:44:13;;;;;;;23.95;18.77;;;;;;;5.56;nan;102329.38;4991437;28;20050;-40
2023/04/30 01:46:40;;;;;;;25.00;18.67;;;;;;;5.41;nan;102304.81;4990880;28;20516;-40
2023/04/30 01:49:20;;;;;;;24.20;18.67;;;;;;;5.48;nan;102322.31;4991232;28;20113;-40
2023/04/30 01:51:47;;;;;;;26.60;20.10;;;;;;;5.08;nan;102261.75;4992420;28;20593;-40
2023/04/30 01:54:36;;;;;;;28.77;19.10;;;;;;;5.30;nan;102302.06;4990465;28;20050;-40
2023/04/30 01:57:06;;;;;;;30.63;20.17;;;;;;;5.35;nan;102323.00;4992763;28;20721;-40
2023/04/30 01:59:34;;;;;;;27.90;19.67;;;;;;;5.25;nan;102313.31;4992313;28;20069;-40
2023/04/30 02:01:59;;;;;;;24.65;19.90;;;;;;;5.26;nan;102315.94;4990331;28;20040;-40
2023/04/30 02:04:24;;;;;;;28.15;19.80;;;;;;;5.27;nan;102322.03;4991584;28;20038;-40
2023/04/30 02:06:50;;;;;;;30.50;19.67;;;;;;;4.83;nan;102244.03;4991581;28;20074;-41
2023/04/30 02:09:15;;;;;;;27.65;20.55;;;;;;;5.25;nan;102322.03;4990255;28;20058;-41
2023/04/30 02:11:40;;;;;;;29.80;21.88;;;;;;;5.27;nan;102316.81;4992389;28;20117;-41
2023/04/30 02:14:06;;;;;;;27.60;20.67;;;;;;;5.27;nan;102322.03;4992334;28;20474;-41
2023/04/30 02:16:31;;;;;;;34.40;21.15;;;;;;;5.25;nan;102314.19;4990846;28;20470;-40
2023/04/30 02:18:57;;;;;;;27.75;19.92;;;;;;;4.91;nan;102268.50;4992538;28;20038;-40
2023/04/30 02:21:22;;;;;;;32.40;21.27;;;;;;;4.93;nan;102263.31;4993196;28;20027;-40
2023/04/30 02:23:48;;;;;;;31.65;20.20;;;;;;;5.23;nan;102315.00;4996078;28;20034;-39
2023/04/30 02:26:13;;;;;;;31.38;21.67;;;;;;;5.23;nan;102325.44;4995406;28;20038;-40
2023/04/30 02:28:38;;;;;;;31.30;21.08;;;;;;;5.19;nan;102316.72;4994567;28;20038;-42
2023/04/30 02:31:04;;;;;;;30.40;22.45;;;;;;;4.97;nan;102289.47;4994383;28;20154;-41
2023/04/30 02:33:29;;;;;;;32.38;20.92;;;;;;;4.74;nan;102248.25;4994339;28;20034;-40
2023/04/30 02:35:55;;;;;;;32.88;21.00;;;;;;;5.10;nan;102314.00;4995540;28;20049;-41
2023/04/30 02:38:20;;;;;;;26.38;20.80;;;;;;;5.07;nan;102312.22;4994525;28;20066;-41
2023/04/30 02:40:45;;;;;;;29.15;23.48;;;;;;;5.08;nan;102313.06;4995027;28;20121;-41
2023/04/30 02:43:10;;;;;;;34.55;22.85;;;;;;;5.04;nan;102308.69;4995354;28;20034;-40
2023/04/30 02:45:36;;;;;;;35.13;23.63;;;;;;;5.02;nan;102313.88;4993156;28;20046;-40
2023/04/30 02:48:01;;;;;;;31.77;23.60;;;;;;;4.64;nan;102243.78;4994629;28;20042;-41
2023/04/30 02:50:27;;;;;;;37.20;24.27;;;;;;;4.63;nan;102232.47;4993630;28;20042;-39
2023/04/30 02:52:52;;;;;;;34.92;25.05;;;;;;;4.98;nan;102300.78;4994384;28;20042;-42
2023/04/30 02:55:17;;;;;;;35.30;25.10;;;;;;;4.95;nan;102300.75;5010760;28;20031;-41
2023/04/30 02:57:43;;;;;;;37.97;25.05;;;;;;;5.02;nan;102310.41;4993427;28;20122;-40
2023/04/30 03:00:08;;;;;;;33.40;23.38;;;;;;;5.05;nan;102313.91;4994346;28;20046;-41
2023/04/30 03:02:34;;;;;;;35.97;24.17;;;;;;;4.98;nan;102300.78;4995193;28;20057;-41
2023/04/30 03:04:59;;;;;;;35.67;26.38;;;;;;;4.99;nan;102298.16;4995158;28;20046;-42
2023/04/30 03:07:24;;;;;;;38.70;25.38;;;;;;;5.05;nan;102311.31;4993832;28;20066;-41
2023/04/30 03:09:50;;;;;;;33.13;25.00;;;;;;;4.67;nan;102247.28;4993443;28;20049;-41
2023/04/30 03:12:15;;;;;;;38.38;25.00;;;;;;;3.60;nan;102084.13;4994575;28;20069;-40
2023/04/30 03:14:41;;;;;;;36.40;25.88;;;;;;;4.63;nan;102240.28;4994983;28;20026;-41
2023/04/30 03:17:06;;;;;;;40.13;25.70;;;;;;;5.10;nan;102311.38;4994812;28;20053;-41
2023/04/30 03:19:31;;;;;;;44.40;28.98;;;;;;;5.12;nan;102317.50;4994963;28;20039;-40
2023/04/30 03:21:57;;;;;;;51.10;28.65;;;;;;;4.81;nan;102255.31;4993900;28;20031;-40
2023/04/30 03:24:23;;;;;;;44.25;28.58;;;;;;;5.22;nan;102327.22;4992404;28;20113;-42
2023/04/30 03:26:49;;;;;;;37.85;27.00;;;;;;;4.92;nan;102265.03;4992921;28;20048;-41
2023/04/30 03:29:15;;;;;;;45.67;27.45;;;;;;;5.22;nan;102318.50;4992412;28;20402;-42
2023/04/30 03:31:40;;;;;;;38.30;26.23;;;;;;;5.22;nan;102323.72;4993319;28;20529;-41
2023/04/30 03:34:05;;;;;;;40.03;26.60;;;;;;;4.80;nan;102246.63;4993802;28;20030;-41
2023/04/30 03:36:32;;;;;;;43.50;25.85;;;;;;;4.84;nan;102256.25;4975100;28;20043;-40
2023/04/30 03:38:57;;;;;;;35.58;26.20;;;;;;;5.11;nan;102308.78;4976189;28;20034;-41
2023/04/30 03:41:23;;;;;;;40.97;27.02;;;;;;;4.37;nan;102179.06;4993093;28;20034;-40
2023/04/30 03:43:48;;;;;;;38.63;25.67;;;;;;;5.09;nan;102314.84;4991644;28;20054;-42
2023/04/30 03:46:13;;;;;;;38.25;27.75;;;;;;;5.02;nan;102305.19;4992960;28;20048;-42
2023/04/30 03:48:39;;;;;;;40.00;27.33;;;;;;;4.64;nan;102239.41;4994563;28;20045;-41
2023/04/30 03:51:04;;;;;;;37.67;25.63;;;;;;;4.65;nan;102249.00;4994490;28;20307;-40
2023/04/30 03:53:29;;;;;;;35.47;25.88;;;;;;;4.47;nan;102212.22;5007979;28;20042;-40
2023/04/30 03:55:57;;;;;;;41.28;26.63;;;;;;;4.50;nan;102210.56;4993724;28;20121;-41
2023/04/30 03:58:22;;;;;;;40.38;25.45;;;;;;;5.00;nan;102293.84;4994353;28;20036;-41
2023/04/30 04:00:48;;;;;;;42.05;26.10;;;;;;;4.54;nan;102214.97;4992381;28;20125;-41
2023/04/30 04:03:14;;;;;;;36.08;24.77;;;;;;;4.98;nan;102296.44;4992965;28;20033;-41
2023/04/30 04:05:40;;;;;;;40.92;25.33;;;;;;;4.53;nan;102221.03;4993005;28;20054;-39
2023/04/30 04:08:05;;;;;;;38.00;25.00;;;;;;;4.94;nan;102286.81;4994071;28;20453;-40
2023/04/30 04:10:31;;;;;;;35.03;24.88;;;;;;;4.59;nan;102224.56;4994268;28;20069;-39
2023/04/30 04:12:56;;;;;;;39.08;25.95;;;;;;;4.58;nan;102215.00;4994402;28;20046;-40
2023/04/30 04:15:21;;;;;;;36.17;26.08;;;;;;;4.54;nan;102219.28;4992356;28;20046;-40
2023/04/30 04:17:47;;;;;;;35.92;24.50;;;;;;;4.95;nan;102291.19;4992171;28;20046;-42
2023/04/30 04:20:12;;;;;;;40.10;24.67;;;;;;;4.91;nan;102291.09;4991495;28;20039;-40
2023/04/30 04:22:37;;;;;;;31.88;23.58;;;;;;;4.91;nan;102291.09;4993675;28;20046;-41
2023/04/30 04:25:03;;;;;;;33.63;24.27;;;;;;;4.61;nan;102239.41;4991620;28;20133;-41
2023/04/30 04:27:28;;;;;;;38.40;24.60;;;;;;;4.91;nan;102284.16;4992659;28;20045;-40
2023/04/30 04:29:54;;;;;;;35.00;23.90;;;;;;;4.65;nan;102228.13;4993672;28;20143;-39
2023/04/30 04:32:21;;;;;;;32.50;23.25;;;;;;;4.70;nan;102230.84;4991160;28;20089;-39
2023/04/30 04:34:46;;;;;;;33.22;22.77;;;;;;;5.15;nan;102301.88;4993631;28;20446;-40
2023/04/30 04:37:12;;;;;;;36.65;24.13;;;;;;;5.15;nan;102303.59;4993433;28;20065;-40
2023/04/30 04:39:37;;;;;;;35.30;24.08;;;;;;;5.10;nan;102269.63;4992232;28;20470;-41
2023/04/30 04:42:03;;;;;;;36.03;24.48;;;;;;;5.14;nan;102281.84;4992071;28;20045;-40
2023/04/30 04:44:29;;;;;;;30.85;23.05;;;;;;;4.94;nan;102247.66;4992215;28;20096;-40
2023/04/30 04:46:55;;;;;;;34.40;22.17;;;;;;;5.30;nan;102304.69;4993367;28;20030;-39
2023/04/30 04:49:20;;;;;;;32.85;23.75;;;;;;;5.33;nan;102320.38;4992508;28;20043;-41
2023/04/30 04:51:46;;;;;;;32.03;22.63;;;;;;;5.21;nan;102295.84;4993288;28;20052;-40
2023/04/30 04:54:11;;;;;;;33.47;23.17;;;;;;;5.44;nan;102326.63;4993049;28;20473;-42
2023/04/30 04:56:37;;;;;;;38.25;23.67;;;;;;;5.10;nan;102254.84;4990277;28;20060;-41
2023/04/30 04:59:02;;;;;;;36.05;22.88;;;;;;;5.53;nan;102318.91;4992758;28;20482;-40
2023/04/30 05:01:28;;;;;;;32.67;22.20;;;;;;;5.20;nan;102252.31;4991837;28;20041;-41
2023/04/30 05:03:53;;;;;;;39.20;22.85;;;;;;;5.58;nan;102306.75;4990945;28;20042;-41
2023/04/30 05:06:19;;;;;;;32.45;23.02;;;;;;;5.60;nan;102325.06;4991788;28;20404;-41
2023/04/30 05:08:44;;;;;;;31.33;21.05;;;;;;;5.64;nan;102321.63;4991116;28;20122;-41
2023/04/30 05:11:11;;;;;;;31.83;22.42;;;;;;;5.28;nan;102248.09;4992976;28;20049;-42
2023/04/30 05:13:36;;;;;;;32.72;21.50;;;;;;;5.78;nan;102325.25;4991247;28;20077;-40
2023/04/30 05:16:02;;;;;;;32.13;22.45;;;;;;;5.91;nan;102321.97;4974068;28;20060;-43
2023/04/30 05:18:27;;;;;;;29.33;21.15;;;;;;;6.01;nan;102322.94;5007837;28;20038;-42
2023/04/30 05:20:55;;;;;;;29.35;21.75;;;;;;;6.08;nan;102317.75;4990558;28;20149;-41
2023/04/30 05:23:21;;;;;;;29.23;20.88;;;;;;;6.16;nan;102317.81;4991884;28;20033;-42
2023/04/30 05:25:54;;;;;;;27.30;19.70;;;;;;;6.27;nan;102310.97;4992496;28;20394;-41
2023/04/30 05:28:19;;;;;;;24.45;19.58;;;;;;;6.35;nan;102311.03;4991475;28;20057;-41
2023/04/30 05:30:45;;;;;;;25.83;19.52;;;;;;;6.38;nan;102306.69;4990971;28;20042;-41
2023/04/30 05:33:11;;;;;;;25.88;19.52;;;;;;;6.53;nan;102312.06;4975218;28;20030;-41
2023/04/30 05:35:36;;;;;;;24.38;18.23;;;;;;;6.61;nan;102318.22;4991407;28;20038;-41
2023/04/30 05:38:02;;;;;;;21.55;18.55;;;;;;;6.76;nan;102312.22;4959021;28;20053;-43
2023/04/30 05:40:28;;;;;;;21.23;17.58;;;;;;;6.87;nan;102310.53;4979779;28;20101;-41
2023/04/30 05:42:54;;;;;;;23.38;16.90;;;;;;;6.97;nan;102324.56;4991616;28;20078;-42
2023/04/30 05:45:19;;;;;;;21.08;16.98;;;;;;;7.08;nan;102318.53;4992674;28;20054;-41
2023/04/30 05:47:44;;;;;;;18.63;15.73;;;;;;;7.24;nan;102327.31;4989299;28;20265;-41
2023/04/30 05:50:10;;;;;;;19.70;13.82;;;;;;;7.33;nan;102320.38;4990744;28;20509;-42
2023/04/30 05:52:35;;;;;;;19.67;14.82;;;;;;;7.34;nan;102311.66;4992677;28;20481;-42
2023/04/30 05:55:01;;;;;;;18.17;13.10;;;;;;;7.14;nan;102258.31;4993370;28;20034;-41
2023/04/30 05:57:26;;;;;;;14.93;13.27;;;;;;;7.64;nan;102324.00;4995632;28;20056;-39
2023/04/30 05:59:53;;;;;;;15.25;12.38;;;;;;;7.73;nan;102321.41;4996413;28;20038;-42
2023/04/30 06:02:18;;;;;;;14.50;11.50;;;;;;;7.89;nan;102324.94;4996443;28;20030;-41
2023/04/30 06:04:43;;;;;;;12.50;10.60;;;;;;;7.99;nan;102315.34;4994629;28;20093;-42
2023/04/30 06:07:09;;;;;;;16.38;11.50;;;;;;;8.12;nan;102323.22;4996212;28;20038;-41
2023/04/30 06:09:34;;;;;;;16.45;12.25;;;;;;;8.21;nan;102307.50;4996525;28;20038;-42
2023/04/30 06:12:01;;;;;;;11.38;10.27;;;;;;;8.43;nan;102330.25;4994343;28;20046;-40
2023/04/30 06:14:26;;;;;;;11.30;10.00;;;;;;;8.61;nan;102318.88;4996148;28;20038;-40
2023/04/30 06:16:52;;;;;;;13.82;9.77;;;;;;;8.48;nan;102275.16;4994551;28;20054;-40
2023/04/30 06:19:17;;;;;;;10.45;9.38;;;;;;;8.56;nan;102270.78;4995882;28;20058;-42
2023/04/30 06:21:43;;;;;;;8.65;7.72;;;;;;;8.95;nan;102330.22;4995792;28;20034;-41
2023/04/30 06:24:08;;;;;;;10.73;8.38;;;;;;;9.09;nan;102336.31;4995594;28;20031;-41
2023/04/30 06:26:34;;;;;;;9.07;8.15;;;;;;;9.21;nan;102332.78;4993194;28;20478;-42
2023/04/30 06:28:59;;;;;;;10.40;8.20;;;;;;;9.34;nan;102329.25;4994531;28;20038;-42
2023/04/30 06:31:25;;;;;;;10.07;8.35;;;;;;;9.43;nan;102343.22;4994684;28;20146;-41
2023/04/30 06:33:51;;;;;;;8.48;7.63;;;;;;;9.49;nan;102337.94;4995185;28;20114;-41
2023/04/30 06:36:17;;;;;;;8.70;7.82;;;;;;;9.63;nan;102344.91;4995555;28;20492;-41
2023/04/30 06:38:42;;;;;;;8.77;7.93;;;;;;;9.65;nan;102322.97;4995473;28;20034;-43
2023/04/30 06:41:08;;;;;;;8.50;7.60;;;;;;;9.74;nan;102343.09;4995485;28;20589;-42
2023/04/30 06:43:33;;;;;;;9.02;7.63;;;;;;;9.94;nan;102351.72;4993891;28;20041;-41
2023/04/30 06:45:59;;;;;;;9.30;7.88;;;;;;;9.96;nan;102335.06;4989295;28;20036;-42
2023/04/30 06:48:24;;;;;;;8.45;7.65;;;;;;;10.18;nan;102356.88;4993478;28;20034;-40
2023/04/30 06:50:50;;;;;;;9.05;7.20;;;;;;;10.27;nan;102340.16;4995251;28;20035;-42
2023/04/30 06:53:15;;;;;;;10.13;7.60;;;;;;;10.41;nan;102362.84;4992366;28;20061;-44
2023/04/30 06:55:41;;;;;;;9.35;6.82;;;;;;;10.31;nan;102324.31;4995698;28;20117;-42
2023/04/30 06:58:07;;;;;;;8.45;6.88;;;;;;;10.59;nan;102354.81;4992988;28;20293;-40
2023/04/30 07:00:33;;;;;;;7.47;6.50;;;;;;;10.78;nan;102359.91;4994341;28;20047;-41
2023/04/30 07:03:03;;;;;;;8.48;6.53;;;;;;;10.60;nan;102318.81;4995373;28;20031;-40
2023/04/30 07:05:29;;;;;;;8.10;6.63;;;;;;;10.91;nan;102359.78;4994136;28;20137;-40
2023/04/30 07:07:55;;;;;;;7.13;6.03;;;;;;;11.08;nan;102364.88;4993276;28;20054;-40
2023/04/30 07:10:21;;;;;;;7.05;6.30;;;;;;;11.12;nan;102306.00;4993699;28;20038;-40
2023/04/30 07:12:46;;;;;;;6.93;6.00;;;;;;;11.36;nan;102296.91;4995190;28;20116;-40
2023/04/30 07:15:11;;;;;;;8.00;5.70;;;;;;;12.14;nan;102353.88;4994936;28;20041;-42
2023/04/30 07:17:37;;;;;;;6.00;5.22;;;;;;;12.41;nan;102287.44;4992398;28;20038;-43
2023/04/30 07:20:03;;;;;;;7.07;5.43;;;;;;;13.54;nan;102381.41;4993869;28;20405;-43
2023/04/30 07:22:30;;;;;;;7.15;5.82;;;;;;;13.50;nan;102301.25;4993772;28;20397;-44
2023/04/30 07:24:55;;;;;;;6.40;5.15;;;;;;;14.40;nan;102386.59;5009997;28;20034;-44
2023/04/30 07:27:21;;;;;;;6.43;5.82;;;;;;;14.80;nan;102402.41;5009957;28;20033;-45
2023/04/30 07:29:47;;;;;;;8.48;6.10;;;;;;;14.94;nan;102360.50;4994998;28;20041;-42
2023/04/30 07:32:13;;;;;;;6.10;5.28;;;;;;;14.94;nan;102337.50;4993679;28;20061;-42
2023/04/30 07:34:38;;;;;;;6.38;5.78;;;;;;;15.09;nan;102390.13;4992559;28;20458;-40
2023/04/30 07:37:03;;;;;;;6.95;4.88;;;;;;;15.44;nan;102385.66;4993122;28;20117;-43
2023/04/30 07:39:29;;;;;;;6.55;5.70;;;;;;;15.31;nan;102340.00;4994419;28;20470;-43
2023/04/30 07:41:55;;;;;;;5.57;4.80;;;;;;;15.45;nan;102310.44;4994319;28;20470;-43
2023/04/30 07:44:20;;;;;;;10.05;5.57;;;;;;;16.17;nan;102401.16;4992407;28;20062;-44
2023/04/30 07:46:46;;;;;;;6.82;5.90;;;;;;;16.50;nan;102383.31;4994515;28;20153;-43
2023/04/30 07:49:11;;;;;;;5.82;5.32;;;;;;;16.68;nan;102387.19;4994258;28;20066;-44
2023/04/30 07:51:37;;;;;;;5.72;5.15;;;;;;;16.60;nan;102399.88;4992311;28;20042;-42
2023/04/30 07:54:03;;;;;;;5.88;5.28;;;;;;;16.51;nan;102377.06;4993427;28;20034;-44
2023/04/30 07:56:29;;;;;;;5.60;5.03;;;;;;;16.81;nan;102400.00;4993220;28;20036;-42
2023/04/30 07:58:54;;;;;;;5.40;4.90;;;;;;;16.94;nan;102394.28;4994094;28;20121;-41
2023/04/30 08:01:20;;;;;;;6.07;5.43;;;;;;;16.66;nan;102407.63;4993581;28;20042;-44
2023/04/30 08:03:45;;;;;;;6.85;5.10;;;;;;;16.56;nan;102377.81;4993821;28;20038;-45
2023/04/30 08:06:10;;;;;;;5.43;4.38;;;;;;;16.90;nan;102358.94;4988845;28;20057;-45
2023/04/30 08:08:36;;;;;;;6.82;5.05;;;;;;;17.05;nan;102347.75;4992964;28;20493;-44
2023/04/30 08:11:01;;;;;;;6.05;4.82;;;;;;;17.29;nan;102348.66;4992408;28;20045;-43
2023/04/30 08:13:27;;;;;;;5.35;4.85;;;;;;;17.55;nan;102343.28;4992879;28;20070;-45
2023/04/30 08:15:52;;;;;;;5.10;4.70;;;;;;;18.09;nan;102395.38;5007529;28;20039;-45
2023/04/30 08:18:17;;;;;;;5.53;4.90;;;;;;;18.60;nan;102401.31;4992086;28;20037;-45
2023/04/30 08:20:43;;;;;;;4.88;4.40;;;;;;;18.65;nan;102399.31;5008624;28;20045;-43
2023/04/30 08:23:08;;;;;;;5.35;4.85;;;;;;;18.81;nan;102407.56;4993457;28;20125;-43
2023/04/30 08:25:33;;;;;;;5.00;4.50;;;;;;;18.49;nan;102407.09;4993677;28;20089;-46
2023/04/30 08:27:59;;;;;;;4.97;4.57;;;;;;;18.33;nan;102347.28;4993513;28;20366;-43
2023/04/30 08:30:24;;;;;;;5.43;4.70;;;;;;;18.71;nan;102411.56;4992147;28;20100;-44
2023/04/30 08:32:50;;;;;;;7.05;4.80;;;;;;;18.59;nan;102338.28;4991659;28;20282;-41
2023/04/30 08:35:18;;;;;;;5.50;4.10;;;;;;;18.93;nan;102343.91;4993655;28;20038;-41
2023/04/30 08:37:44;;;;;;;4.72;4.13;;;;;;;18.73;nan;102359.00;4993451;28;20038;-41
2023/04/30 08:40:10;;;;;;;4.20;3.80;;;;;;;18.94;nan;102340.28;4993516;28;20049;-41
2023/04/30 08:42:37;;;;;;;4.65;4.25;;;;;;;19.58;nan;102398.88;5008194;28;20030;-42
2023/04/30 08:45:03;;;;;;;4.55;4.15;;;;;;;19.27;nan;102342.38;4991614;28;20386;-41
2023/04/30 08:47:28;;;;;;;4.35;3.95;;;;;;;20.06;nan;102393.94;4991975;28;20108;-42
2023/04/30 08:49:53;;;;;;;5.57;4.07;;;;;;;20.31;nan;102398.16;4992134;28;20034;-42
2023/04/30 08:52:20;;;;;;;3.70;3.33;;;;;;;19.86;nan;102345.91;4991368;28;20038;-43
2023/04/30 08:54:47;;;;;;;4.85;3.95;;;;;;;20.14;nan;102406.91;4992504;28;20115;-43
2023/04/30 08:57:13;;;;;;;5.28;3.72;;;;;;;19.97;nan;102354.25;4992285;28;20034;-44
2023/04/30 08:59:38;;;;;;;3.95;3.58;;;;;;;20.03;nan;102353.97;4991819;28;20390;-43
2023/04/30 09:02:05;;;;;;;3.97;3.10;;;;;;;20.33;nan;102409.63;4993413;28;20027;-41
2023/04/30 09:04:30;;;;;;;4.65;3.20;;;;;;;20.37;nan;102401.41;4992139;28;20047;-44
2023/04/30 09:06:58;;;;;;;3.80;3.30;;;;;;;20.33;nan;102358.81;4993070;28;20117;-43
2023/04/30 09:09:28;;;;;;;5.57;4.07;;;;;;;20.43;nan;102344.91;4993254;28;20061;-42
2023/04/30 09:12:13;;;;;;;6.40;3.63;;;;;;;21.00;nan;102399.97;4992935;28;20054;-42
2023/04/30 09:14:40;;;;;;;4.07;3.67;;;;;;;20.92;nan;102390.63;5008089;28;20277;-43
2023/04/30 09:17:06;;;;;;;3.58;3.20;;;;;;;21.07;nan;102406.75;5008290;28;20426;-43
2023/04/30 09:19:31;;;;;;;3.72;3.35;;;;;;;21.18;nan;102393.72;4990834;28;20073;-43
2023/04/30 09:21:57;;;;;;;4.55;3.63;;;;;;;21.10;nan;102395.06;4990886;28;20085;-41
2023/04/30 09:24:23;;;;;;;4.18;3.60;;;;;;;21.71;nan;102403.41;5007130;28;20041;-42
2023/04/30 09:26:49;;;;;;;4.97;3.97;;;;;;;22.03;nan;102394.50;4992154;28;20026;-43
2023/04/30 09:29:15;;;;;;;3.55;3.25;;;;;;;21.84;nan;102356.19;4993479;28;20441;-41
2023/04/30 09:31:45;;;;;;;4.10;3.78;;;;;;;21.47;nan;102329.69;4998225;28;20060;-43
2023/04/30 09:34:11;;;;;;;5.00;3.58;;;;;;;21.43;nan;102393.28;4999323;28;20039;-44
2023/04/30 09:36:36;;;;;;;4.82;3.90;;;;;;;20.88;nan;102389.03;4997169;28;20401;-41
2023/04/30 09:39:16;;;;;;;4.40;3.55;;;;;;;20.80;nan;102376.03;4999189;28;20064;-44
2023/04/30 09:41:43;;;;;;;3.72;3.35;;;;;;;20.88;nan;102340.84;4999223;28;20076;-42
2023/04/30 09:44:26;;;;;;;3.92;3.50;;;;;;;21.33;nan;102334.94;4999185;28;20494;-42
2023/04/30 09:46:52;;;;;;;4.50;3.65;;;;;;;21.92;nan;102396.88;4999167;28;20123;-41
2023/04/30 09:49:18;;;;;;;3.80;3.50;;;;;;;21.70;nan;102340.88;4999081;28;20066;-40
2023/04/30 09:51:57;;;;;;;4.07;3.58;;;;;;;21.79;nan;102343.06;5014225;28;20030;-43
2023/04/30 09:54:28;;;;;;;3.00;2.70;;;;;;;22.67;nan;102390.84;4998450;28;20030;-41
2023/04/30 09:56:57;;;;;;;4.40;3.40;;;;;;;22.80;nan;102344.38;4999362;28;20041;-43
2023/04/30 09:59:29;;;;;;;4.13;3.72;;;;;;;22.76;nan;102398.34;5014223;28;20041;-42
2023/04/30 10:02:00;;;;;;;3.85;3.45;;;;;;;22.38;nan;102339.72;4999069;28;20125;-42
2023/04/30 10:04:28;;;;;;;5.00;3.85;;;;;;;22.97;nan;102362.19;4998929;28;20036;-45
2023/04/30 10:06:56;;;;;;;5.68;2.67;;;;;;;23.66;nan;102383.88;4997971;28;20030;-42
2023/04/30 10:09:21;;;;;;;2.88;2.63;;;;;;;23.17;nan;102343.03;5013363;28;20470;-44
2023/04/30 10:11:47;;;;;;;3.08;2.78;;;;;;;22.86;nan;102373.56;4999093;28;20117;-43
2023/04/30 10:14:15;;;;;;;4.70;4.13;;;;;;;22.89;nan;102321.47;4997748;28;20042;-41
2023/04/30 10:16:56;;;;;;;4.40;4.00;;;;;;;23.02;nan;102375.31;4998993;28;20097;-42
2023/04/30 10:19:29;;;;;;;4.63;3.42;;;;;;;23.24;nan;102371.22;5014350;28;20053;-45
2023/04/30 10:21:55;;;;;;;4.78;3.47;;;;;;;23.68;nan;102376.56;4999110;28;20022;-42
2023/04/30 10:24:20;;;;;;;4.55;4.10;;;;;;;23.78;nan;102355.34;4996545;28;20097;-43
2023/04/30 10:26:47;;;;;;;4.10;3.70;;;;;;;24.13;nan;102369.25;4998831;28;20518;-41
2023/04/30 10:29:14;;;;;;;4.38;3.58;;;;;;;24.14;nan;102363.75;4998739;28;20500;-46
2023/04/30 10:31:46;;;;;;;3.53;3.22;;;;;;;24.08;nan;102311.19;5013677;28;20408;-46
2023/04/30 10:34:34;;;;;;;5.07;4.00;;;;;;;24.57;nan;102359.09;5014076;28;20117;-44
2023/04/30 10:37:04;;;;;;;5.13;4.60;;;;;;;24.01;nan;102352.91;4998839;28;20110;-45
2023/04/30 10:39:29;;;;;;;4.37;3.50;;;;;;;24.05;nan;102356.28;5013988;28;20026;-43
2023/04/30 10:42:02;;;;;;;3.47;3.17;;;;;;;24.61;nan;102348.00;4994572;28;20034;-44
2023/04/30 10:44:31;;;;;;;3.40;3.00;;;;;;;24.94;nan;102296.41;4976347;28;20062;-48
2023/04/30 10:47:03;;;;;;;3.03;2.72;;;;;;;25.32;nan;102296.41;4976146;28;20035;-44
2023/04/30 10:49:29;;;;;;;2.55;2.35;;;;;;;24.70;nan;102286.41;4976371;28;20101;-45
2023/04/30 10:51:59;;;;;;;3.35;2.35;;;;;;;24.84;nan;102284.53;4958905;28;20138;-47
2023/04/30 10:54:35;;;;;;;1.98;1.85;;;;;;;24.95;nan;102284.66;4974871;28;20030;-46
2023/04/30 10:57:13;;;;;;;3.03;2.00;;;;;;;25.24;nan;102335.66;4993062;28;20464;-43
2023/04/30 10:59:45;;;;;;;3.53;2.60;;;;;;;25.43;nan;102325.28;4979575;28;20042;-44
2023/04/30 11:02:11;;;;;;;2.92;2.72;;;;;;;24.37;nan;102263.53;4995377;28;20117;-47
2023/04/30 11:05:14;;;;;;;2.97;2.58;;;;;;;24.61;nan;102325.59;5009906;28;20045;-45
2023/04/30 11:07:51;;;;;;;2.55;2.08;;;;;;;24.13;nan;102320.81;4995268;28;20474;-45
2023/04/30 11:10:20;;;;;;;2.85;2.33;;;;;;;24.47;nan;102313.09;4994827;28;20027;-43
2023/04/30 11:12:52;;;;;;;3.17;2.58;;;;;;;24.77;nan;102317.34;4995111;28;20088;-42
2023/04/30 11:15:21;;;;;;;2.17;1.95;;;;;;;25.00;nan;102246.63;4995059;28;20030;-44
2023/04/30 11:17:48;;;;;;;2.40;2.20;;;;;;;25.17;nan;102263.31;4994210;28;20140;-46
2023/04/30 11:20:17;;;;;;;3.10;2.80;;;;;;;25.61;nan;102307.81;5010149;28;20061;-46
2023/04/30 11:22:44;;;;;;;2.90;2.53;;;;;;;25.55;nan;102243.53;4993704;28;20130;-43
2023/04/30 11:25:11;;;;;;;3.17;2.88;;;;;;;26.34;nan;102302.41;4994756;28;20125;-44
2023/04/30 11:27:40;;;;;;;3.38;3.08;;;;;;;26.65;nan;102302.66;5009787;28;20035;-43
2023/04/30 11:30:12;;;;;;;3.40;3.10;;;;;;;26.05;nan;102281.13;4994702;28;20049;-47
2023/04/30 11:32:38;;;;;;;2.83;2.63;;;;;;;25.69;nan;102241.56;4994938;28;20072;-45
2023/04/30 11:35:05;;;;;;;2.80;2.42;;;;;;;25.88;nan;102234.81;4993933;28;20058;-43
2023/04/30 11:37:41;;;;;;;2.97;2.58;;;;;;;26.28;nan;102292.94;4994997;28;20065;-44